sensor_id;sensor_type;location;lat;lon;timestamp;pressure;altitude;pressure_sealevel;temperature;humidity
85649;BME280;76075;52.476;13.124;2024-02-14T00:00:53;101401.06;;;19.45;48.67
85649;BME280;76075;52.476;13.124;2024-02-14T00:01:55;101397.41;;;19.44;48.54
85649;BME280;76075;52.476;13.124;2024-02-14T00:02:56;101398.91;;;19.45;48.78
85649;BME280;76075;52.476;13.124;2024-02-14T00:03:58;101400.41;;;19.46;48.76
85649;BME280;76075;52.476;13.124;2024-02-14T00:04:59;101392.44;;;19.45;48.83
85649;BME280;76075;52.476;13.124;2024-02-14T00:06:01;101394.66;;;19.46;48.87
85649;BME280;76075;52.476;13.124;2024-02-14T00:07:03;101391.78;;;19.46;48.82
85649;BME280;76075;52.476;13.124;2024-02-14T00:08:05;101399.66;;;19.46;48.90
85649;BME280;76075;52.476;13.124;2024-02-14T00:09:08;101395.44;;;19.47;48.85
85649;BME280;76075;52.476;13.124;2024-02-14T00:10:10;101403.28;;;19.46;48.89
85649;BME280;76075;52.476;13.124;2024-02-14T00:11:11;101396.91;;;19.48;48.80
85649;BME280;76075;52.476;13.124;2024-02-14T00:12:13;101394.66;;;19.46;48.66
85649;BME280;76075;52.476;13.124;2024-02-14T00:13:14;101396.16;;;19.48;48.78
85649;BME280;76075;52.476;13.124;2024-02-14T00:14:16;101402.53;;;19.46;48.88
85649;BME280;76075;52.476;13.124;2024-02-14T00:15:17;101393.91;;;19.46;48.77
85649;BME280;76075;52.476;13.124;2024-02-14T00:16:18;101399.66;;;19.46;48.77
85649;BME280;76075;52.476;13.124;2024-02-14T00:17:20;101395.44;;;19.47;48.79
85649;BME280;76075;52.476;13.124;2024-02-14T00:18:21;101395.44;;;19.47;48.77
85649;BME280;76075;52.476;13.124;2024-02-14T00:19:24;101390.44;;;19.48;48.87
85649;BME280;76075;52.476;13.124;2024-02-14T00:20:25;101392.56;;;19.47;48.97
85649;BME280;76075;52.476;13.124;2024-02-14T00:21:27;101398.31;;;19.47;48.85
85649;BME280;76075;52.476;13.124;2024-02-14T00:22:28;101399.66;;;19.46;48.91
85649;BME280;76075;52.476;13.124;2024-02-14T00:23:30;101398.91;;;19.45;48.96
85649;BME280;76075;52.476;13.124;2024-02-14T00:24:31;101393.91;;;19.46;48.92
85649;BME280;76075;52.476;13.124;2024-02-14T00:25:33;101399.66;;;19.46;48.86
85649;BME280;76075;52.476;13.124;2024-02-14T00:26:34;101399.66;;;19.46;48.76
85649;BME280;76075;52.476;13.124;2024-02-14T00:27:36;101395.94;;;19.43;48.79
85649;BME280;76075;52.476;13.124;2024-02-14T00:28:38;101401.78;;;19.45;48.74
85649;BME280;76075;52.476;13.124;2024-02-14T00:29:40;101393.19;;;19.45;48.69
85649;BME280;76075;52.476;13.124;2024-02-14T00:30:41;101394.53;;;19.44;48.70
85649;BME280;76075;52.476;13.124;2024-02-14T00:31:42;101393.78;;;19.44;48.70
85649;BME280;76075;52.476;13.124;2024-02-14T00:32:45;101393.78;;;19.44;48.66
85649;BME280;76075;52.476;13.124;2024-02-14T00:33:47;101399.53;;;19.44;48.72
85649;BME280;76075;52.476;13.124;2024-02-14T00:34:49;101391.66;;;19.44;48.76
85649;BME280;76075;52.476;13.124;2024-02-14T00:35:51;101393.78;;;19.44;48.77
85649;BME280;76075;52.476;13.124;2024-02-14T00:36:53;101391.66;;;19.44;48.77
85649;BME280;76075;52.476;13.124;2024-02-14T00:37:54;101398.19;;;19.45;48.75
85649;BME280;76075;52.476;13.124;2024-02-14T00:38:55;101398.19;;;19.45;48.87
85649;BME280;76075;52.476;13.124;2024-02-14T00:39:57;101405.41;;;19.46;48.80
85649;BME280;76075;52.476;13.124;2024-02-14T00:40:59;101404.66;;;19.45;48.78
85649;BME280;76075;52.476;13.124;2024-02-14T00:42:00;101400.28;;;19.44;48.84
85649;BME280;76075;52.476;13.124;2024-02-14T00:43:02;101395.31;;;19.45;48.85
85649;BME280;76075;52.476;13.124;2024-02-14T00:44:03;101408.28;;;19.46;48.90
85649;BME280;76075;52.476;13.124;2024-02-14T00:45:05;101399.66;;;19.46;48.81
85649;BME280;76075;52.476;13.124;2024-02-14T00:46:09;101406.91;;;19.47;48.90
85649;BME280;76075;52.476;13.124;2024-02-14T00:47:10;101399.66;;;19.46;48.85
85649;BME280;76075;52.476;13.124;2024-02-14T00:48:11;101399.66;;;19.46;49.00
85649;BME280;76075;52.476;13.124;2024-02-14T00:49:13;101408.41;;;19.48;49.00
85649;BME280;76075;52.476;13.124;2024-02-14T00:50:15;101400.53;;;19.49;48.92
85649;BME280;76075;52.476;13.124;2024-02-14T00:51:16;101400.41;;;19.46;49.06
85649;BME280;76075;52.476;13.124;2024-02-14T00:52:18;101401.91;;;19.48;48.98
85649;BME280;76075;52.476;13.124;2024-02-14T00:53:19;101401.16;;;19.47;48.93
85649;BME280;76075;52.476;13.124;2024-02-14T00:54:21;101406.91;;;19.47;48.80
85649;BME280;76075;52.476;13.124;2024-02-14T00:55:22;101400.53;;;19.49;48.80
85649;BME280;76075;52.476;13.124;2024-02-14T00:56:24;101405.53;;;19.48;48.88
85649;BME280;76075;52.476;13.124;2024-02-14T00:57:25;101402.66;;;19.48;48.80
85649;BME280;76075;52.476;13.124;2024-02-14T00:58:27;101408.41;;;19.48;48.94
85649;BME280;76075;52.476;13.124;2024-02-14T00:59:28;101406.16;;;19.46;48.83
85649;BME280;76075;52.476;13.124;2024-02-14T01:00:30;101405.41;;;19.46;48.89
85649;BME280;76075;52.476;13.124;2024-02-14T01:01:35;101399.66;;;19.46;48.79
85649;BME280;76075;52.476;13.124;2024-02-14T01:02:36;101403.94;;;19.45;48.75
85649;BME280;76075;52.476;13.124;2024-02-14T01:03:38;101400.41;;;19.46;48.90
85649;BME280;76075;52.476;13.124;2024-02-14T01:04:39;101396.03;;;19.45;48.85
85649;BME280;76075;52.476;13.124;2024-02-14T01:05:41;101398.19;;;19.45;48.89
85649;BME280;76075;52.476;13.124;2024-02-14T01:06:42;101398.19;;;19.45;48.79
85649;BME280;76075;52.476;13.124;2024-02-14T01:07:44;101392.44;;;19.45;48.93
85649;BME280;76075;52.476;13.124;2024-02-14T01:08:47;101403.94;;;19.45;48.75
85649;BME280;76075;52.476;13.124;2024-02-14T01:09:49;101394.53;;;19.44;48.83
85649;BME280;76075;52.476;13.124;2024-02-14T01:10:51;101398.19;;;19.45;48.88
85649;BME280;76075;52.476;13.124;2024-02-14T01:11:52;101391.66;;;19.44;48.85
85649;BME280;76075;52.476;13.124;2024-02-14T01:12:54;101398.19;;;19.45;48.76
85649;BME280;76075;52.476;13.124;2024-02-14T01:13:56;101398.19;;;19.45;48.97
85649;BME280;76075;52.476;13.124;2024-02-14T01:14:57;101395.94;;;19.43;48.85
85649;BME280;76075;52.476;13.124;2024-02-14T01:15:59;101392.31;;;19.43;48.71
85649;BME280;76075;52.476;13.124;2024-02-14T01:17:00;101401.66;;;19.43;48.63
85649;BME280;76075;52.476;13.124;2024-02-14T01:18:02;101395.19;;;19.43;48.76
85649;BME280;76075;52.476;13.124;2024-02-14T01:19:03;101395.94;;;19.43;48.72
85649;BME280;76075;52.476;13.124;2024-02-14T01:20:05;101392.44;;;19.45;48.81
85649;BME280;76075;52.476;13.124;2024-02-14T01:21:10;101386.69;;;19.45;48.78
85649;BME280;76075;52.476;13.124;2024-02-14T01:22:11;101391.66;;;19.44;48.93
85649;BME280;76075;52.476;13.124;2024-02-14T01:23:12;101389.56;;;19.45;48.99
85649;BME280;76075;52.476;13.124;2024-02-14T01:24:14;101388.78;;;19.44;49.01
85649;BME280;76075;52.476;13.124;2024-02-14T01:25:15;101391.03;;;19.46;48.96
85649;BME280;76075;52.476;13.124;2024-02-14T01:26:17;101378.81;;;19.45;48.86
85649;BME280;76075;52.476;13.124;2024-02-14T01:27:18;101385.31;;;19.46;48.93
85649;BME280;76075;52.476;13.124;2024-02-14T01:28:20;101384.69;;;19.48;49.09
85649;BME280;76075;52.476;13.124;2024-02-14T01:29:21;101380.28;;;19.46;49.00
85649;BME280;76075;52.476;13.124;2024-02-14T01:30:24;101383.94;;;19.47;48.89
85649;BME280;76075;52.476;13.124;2024-02-14T01:31:26;101376.69;;;19.46;48.96
85649;BME280;76075;52.476;13.124;2024-02-14T01:32:28;101376.69;;;19.46;48.98
85649;BME280;76075;52.476;13.124;2024-02-14T01:33:31;101376.69;;;19.46;48.97
85649;BME280;76075;52.476;13.124;2024-02-14T01:34:33;101373.81;;;19.46;48.90
85649;BME280;76075;52.476;13.124;2024-02-14T01:35:34;101365.94;;;19.46;48.94
85649;BME280;76075;52.476;13.124;2024-02-14T01:36:36;101372.44;;;19.47;48.90
85649;BME280;76075;52.476;13.124;2024-02-14T01:37:39;101366.72;;;19.47;48.87
85649;BME280;76075;52.476;13.124;2024-02-14T01:38:41;101368.06;;;19.46;48.98
85649;BME280;76075;52.476;13.124;2024-02-14T01:39:44;101365.19;;;19.46;49.01
85649;BME280;76075;52.476;13.124;2024-02-14T01:40:46;101365.94;;;19.46;48.89
85649;BME280;76075;52.476;13.124;2024-02-14T01:41:48;101373.81;;;19.46;48.92
85649;BME280;76075;52.476;13.124;2024-02-14T01:42:50;101360.84;;;19.45;48.73
85649;BME280;76075;52.476;13.124;2024-02-14T01:43:53;101365.19;;;19.46;48.83
85649;BME280;76075;52.476;13.124;2024-02-14T01:44:54;101369.47;;;19.45;48.78
85649;BME280;76075;52.476;13.124;2024-02-14T01:45:58;101369.47;;;19.45;48.88
85649;BME280;76075;52.476;13.124;2024-02-14T01:47:04;101369.47;;;19.45;48.86
85649;BME280;76075;52.476;13.124;2024-02-14T01:48:07;101375.19;;;19.45;48.83
85649;BME280;76075;52.476;13.124;2024-02-14T01:49:11;101367.94;;;19.44;48.70
85649;BME280;76075;52.476;13.124;2024-02-14T01:50:15;101375.81;;;19.43;48.69
85649;BME280;76075;52.476;13.124;2024-02-14T01:51:17;101367.94;;;19.44;48.84
85649;BME280;76075;52.476;13.124;2024-02-14T01:52:20;101365.72;;;19.42;48.77
85649;BME280;76075;52.476;13.124;2024-02-14T01:53:23;101365.72;;;19.42;48.74
85649;BME280;76075;52.476;13.124;2024-02-14T01:54:26;101369.34;;;19.43;48.71
85649;BME280;76075;52.476;13.124;2024-02-14T01:55:28;101366.47;;;19.43;48.74
85649;BME280;76075;52.476;13.124;2024-02-14T01:56:29;101363.59;;;19.43;48.80
85649;BME280;76075;52.476;13.124;2024-02-14T01:57:31;101359.22;;;19.42;48.76
85649;BME280;76075;52.476;13.124;2024-02-14T01:58:34;101363.59;;;19.43;48.78
85649;BME280;76075;52.476;13.124;2024-02-14T01:59:35;101357.84;;;19.43;48.75
85649;BME280;76075;52.476;13.124;2024-02-14T02:00:36;101356.47;;;19.44;48.72
85649;BME280;76075;52.476;13.124;2024-02-14T02:01:38;101350.72;;;19.44;48.88
85649;BME280;76075;52.476;13.124;2024-02-14T02:02:39;101365.81;;;19.44;48.92
85649;BME280;76075;52.476;13.124;2024-02-14T02:03:41;101360.06;;;19.44;48.90
85649;BME280;76075;52.476;13.124;2024-02-14T02:04:43;101355.09;;;19.45;48.98
85649;BME280;76075;52.476;13.124;2024-02-14T02:05:44;101357.97;;;19.45;49.06
85649;BME280;76075;52.476;13.124;2024-02-14T02:06:46;101363.72;;;19.45;48.95
85649;BME280;76075;52.476;13.124;2024-02-14T02:07:47;101350.84;;;19.46;49.00
85649;BME280;76075;52.476;13.124;2024-02-14T02:08:50;101347.97;;;19.46;49.05
85649;BME280;76075;52.476;13.124;2024-02-14T02:09:51;101353.72;;;19.46;49.05
85649;BME280;76075;52.476;13.124;2024-02-14T02:10:52;101347.97;;;19.46;49.05
85649;BME280;76075;52.476;13.124;2024-02-14T02:11:54;101349.34;;;19.45;48.79
85649;BME280;76075;52.476;13.124;2024-02-14T02:12:58;101346.47;;;19.45;48.99
85649;BME280;76075;52.476;13.124;2024-02-14T02:13:59;101346.47;;;19.45;49.03
85649;BME280;76075;52.476;13.124;2024-02-14T02:15:01;101347.84;;;19.44;48.96
85649;BME280;76075;52.476;13.124;2024-02-14T02:16:03;101352.97;;;19.45;48.90
85649;BME280;76075;52.476;13.124;2024-02-14T02:17:06;101344.97;;;19.44;48.92
85649;BME280;76075;52.476;13.124;2024-02-14T02:18:09;101350.72;;;19.44;48.86
85649;BME280;76075;52.476;13.124;2024-02-14T02:19:11;101339.22;;;19.44;48.92
85649;BME280;76075;52.476;13.124;2024-02-14T02:20:13;101344.97;;;19.44;48.97
85649;BME280;76075;52.476;13.124;2024-02-14T02:21:14;101337.09;;;19.44;48.85
85649;BME280;76075;52.476;13.124;2024-02-14T02:22:16;101339.22;;;19.44;48.80
85649;BME280;76075;52.476;13.124;2024-02-14T02:23:17;101350.72;;;19.44;48.78
85649;BME280;76075;52.476;13.124;2024-02-14T02:24:18;101344.97;;;19.44;48.88
85649;BME280;76075;52.476;13.124;2024-02-14T02:25:20;101344.97;;;19.44;48.76
85649;BME280;76075;52.476;13.124;2024-02-14T02:26:26;101345.63;;;19.42;48.85
85649;BME280;76075;52.476;13.124;2024-02-14T02:27:27;101342.75;;;19.42;48.83
85649;BME280;76075;52.476;13.124;2024-02-14T02:28:28;101337.75;;;19.43;48.76
85649;BME280;76075;52.476;13.124;2024-02-14T02:29:30;101341.25;;;19.41;48.81
85649;BME280;76075;52.476;13.124;2024-02-14T02:30:34;101340.50;;;19.41;48.88
85649;BME280;76075;52.476;13.124;2024-02-14T02:31:36;101341.97;;;19.42;48.81
85649;BME280;76075;52.476;13.124;2024-02-14T02:32:39;101334.75;;;19.41;48.92
85649;BME280;76075;52.476;13.124;2024-02-14T02:33:40;101334.00;;;19.40;48.81
85649;BME280;76075;52.476;13.124;2024-02-14T02:34:42;101334.75;;;19.41;48.83
85649;BME280;76075;52.476;13.124;2024-02-14T02:35:44;101334.75;;;19.41;48.82
85649;BME280;76075;52.476;13.124;2024-02-14T02:36:46;101334.75;;;19.41;48.88
85649;BME280;76075;52.476;13.124;2024-02-14T02:37:50;101333.25;;;19.40;48.87
85649;BME280;76075;52.476;13.124;2024-02-14T02:38:52;101329.00;;;19.41;48.84
85649;BME280;76075;52.476;13.124;2024-02-14T02:39:53;101337.63;;;19.41;48.90
85649;BME280;76075;52.476;13.124;2024-02-14T02:40:54;101328.38;;;19.42;48.84
85649;BME280;76075;52.476;13.124;2024-02-14T02:41:56;101336.22;;;19.42;48.91
85649;BME280;76075;52.476;13.124;2024-02-14T02:42:58;101328.38;;;19.42;48.98
85649;BME280;76075;52.476;13.124;2024-02-14T02:44:01;101329.00;;;19.41;48.95
85649;BME280;76075;52.476;13.124;2024-02-14T02:45:03;101332.00;;;19.43;48.85
85649;BME280;76075;52.476;13.124;2024-02-14T02:46:08;101333.47;;;19.44;48.91
85649;BME280;76075;52.476;13.124;2024-02-14T02:47:10;101329.88;;;19.43;48.94
85649;BME280;76075;52.476;13.124;2024-02-14T02:48:13;101327.72;;;19.44;48.85
85649;BME280;76075;52.476;13.124;2024-02-14T02:49:15;101321.25;;;19.43;48.85
85649;BME280;76075;52.476;13.124;2024-02-14T02:50:17;101324.88;;;19.44;48.98
85649;BME280;76075;52.476;13.124;2024-02-14T02:51:18;101320.50;;;19.43;48.96
85649;BME280;76075;52.476;13.124;2024-02-14T02:52:20;101327.72;;;19.44;49.08
85649;BME280;76075;52.476;13.124;2024-02-14T02:53:22;101323.38;;;19.43;49.06
85649;BME280;76075;52.476;13.124;2024-02-14T02:54:25;101320.50;;;19.43;48.95
85649;BME280;76075;52.476;13.124;2024-02-14T02:55:26;101319.00;;;19.42;48.91
85649;BME280;76075;52.476;13.124;2024-02-14T02:56:28;101319.78;;;19.42;48.76
85649;BME280;76075;52.476;13.124;2024-02-14T02:57:30;101314.03;;;19.42;48.92
85649;BME280;76075;52.476;13.124;2024-02-14T02:58:33;101325.50;;;19.42;48.96
85649;BME280;76075;52.476;13.124;2024-02-14T02:59:35;101318.25;;;19.41;48.91
85649;BME280;76075;52.476;13.124;2024-02-14T03:00:36;101311.78;;;19.41;48.78
85649;BME280;76075;52.476;13.124;2024-02-14T03:01:38;101320.38;;;19.41;48.74
85649;BME280;76075;52.476;13.124;2024-02-14T03:02:39;101311.78;;;19.41;48.74
85649;BME280;76075;52.476;13.124;2024-02-14T03:03:44;101315.38;;;19.41;48.83
85649;BME280;76075;52.476;13.124;2024-02-14T03:04:45;101320.38;;;19.41;48.85
85649;BME280;76075;52.476;13.124;2024-02-14T03:05:53;101317.53;;;19.41;48.72
85649;BME280;76075;52.476;13.124;2024-02-14T03:06:56;101316.78;;;19.40;48.81
85649;BME280;76075;52.476;13.124;2024-02-14T03:07:57;101313.91;;;19.40;48.87
85649;BME280;76075;52.476;13.124;2024-02-14T03:08:59;101304.53;;;19.40;48.88
85649;BME280;76075;52.476;13.124;2024-02-14T03:10:01;101313.13;;;19.40;48.85
85649;BME280;76075;52.476;13.124;2024-02-14T03:11:05;101315.25;;;19.39;48.69
85649;BME280;76075;52.476;13.124;2024-02-14T03:12:07;101301.56;;;19.38;48.57
85649;BME280;76075;52.476;13.124;2024-02-14T03:13:10;101305.91;;;19.39;48.74
85649;BME280;76075;52.476;13.124;2024-02-14T03:14:13;101300.16;;;19.39;48.71
85649;BME280;76075;52.476;13.124;2024-02-14T03:15:15;101297.28;;;19.39;48.77
85649;BME280;76075;52.476;13.124;2024-02-14T03:16:16;101302.28;;;19.38;48.56
85649;BME280;76075;52.476;13.124;2024-02-14T03:17:18;101299.44;;;19.38;48.76
85649;BME280;76075;52.476;13.124;2024-02-14T03:18:20;101302.28;;;19.38;48.71
85649;BME280;76075;52.476;13.124;2024-02-14T03:19:21;101298.03;;;19.39;48.56
85649;BME280;76075;52.476;13.124;2024-02-14T03:20:23;101298.78;;;19.40;48.87
85649;BME280;76075;52.476;13.124;2024-02-14T03:21:25;101293.03;;;19.40;48.76
85649;BME280;76075;52.476;13.124;2024-02-14T03:22:26;101298.78;;;19.40;48.96
85649;BME280;76075;52.476;13.124;2024-02-14T03:23:27;101293.03;;;19.40;48.91
85649;BME280;76075;52.476;13.124;2024-02-14T03:24:29;101288.81;;;19.41;48.85
85649;BME280;76075;52.476;13.124;2024-02-14T03:25:30;101285.94;;;19.41;48.92
85649;BME280;76075;52.476;13.124;2024-02-14T03:26:32;101287.28;;;19.40;48.77
85649;BME280;76075;52.476;13.124;2024-02-14T03:27:34;101290.28;;;19.42;48.87
85649;BME280;76075;52.476;13.124;2024-02-14T03:28:36;101296.03;;;19.42;48.99
85649;BME280;76075;52.476;13.124;2024-02-14T03:29:37;101290.28;;;19.42;48.93
85649;BME280;76075;52.476;13.124;2024-02-14T03:30:40;101283.78;;;19.41;48.96
85649;BME280;76075;52.476;13.124;2024-02-14T03:31:41;101288.81;;;19.41;49.01
85649;BME280;76075;52.476;13.124;2024-02-14T03:32:44;101280.19;;;19.41;48.95
85649;BME280;76075;52.476;13.124;2024-02-14T03:33:46;101271.56;;;19.41;48.84
85649;BME280;76075;52.476;13.124;2024-02-14T03:34:48;101273.06;;;19.42;48.96
85649;BME280;76075;52.476;13.124;2024-02-14T03:35:49;101276.56;;;19.40;48.94
85649;BME280;76075;52.476;13.124;2024-02-14T03:36:51;101274.44;;;19.41;48.75
85649;BME280;76075;52.476;13.124;2024-02-14T03:37:52;101276.56;;;19.40;48.95
85649;BME280;76075;52.476;13.124;2024-02-14T03:38:54;101275.81;;;19.40;48.86
85649;BME280;76075;52.476;13.124;2024-02-14T03:39:56;101272.94;;;19.40;48.81
85649;BME280;76075;52.476;13.124;2024-02-14T03:40:58;101289.53;;;19.41;48.74
85649;BME280;76075;52.476;13.124;2024-02-14T03:41:59;101274.44;;;19.41;48.85
85649;BME280;76075;52.476;13.124;2024-02-14T03:43:04;101280.91;;;19.41;48.84
85649;BME280;76075;52.476;13.124;2024-02-14T03:44:06;101276.56;;;19.40;48.85
85649;BME280;76075;52.476;13.124;2024-02-14T03:45:08;101283.06;;;19.41;48.95
85649;BME280;76075;52.476;13.124;2024-02-14T03:46:09;101278.78;;;19.42;48.76
85649;BME280;76075;52.476;13.124;2024-02-14T03:47:13;101283.78;;;19.41;48.77
85649;BME280;76075;52.476;13.124;2024-02-14T03:48:15;101278.78;;;19.42;48.78
85649;BME280;76075;52.476;13.124;2024-02-14T03:49:17;101275.91;;;19.42;48.58
85649;BME280;76075;52.476;13.124;2024-02-14T03:50:18;101274.56;;;19.43;48.80
85649;BME280;76075;52.476;13.124;2024-02-14T03:51:20;101269.56;;;19.43;48.93
85649;BME280;76075;52.476;13.124;2024-02-14T03:52:22;101269.56;;;19.43;48.82
85649;BME280;76075;52.476;13.124;2024-02-14T03:53:23;101271.03;;;19.44;48.93
85649;BME280;76075;52.476;13.124;2024-02-14T03:54:25;101273.28;;;19.46;48.90
85649;BME280;76075;52.476;13.124;2024-02-14T03:55:26;101277.56;;;19.45;48.83
85649;BME280;76075;52.476;13.124;2024-02-14T03:56:27;101277.56;;;19.45;48.83
85649;BME280;76075;52.476;13.124;2024-02-14T03:57:29;101279.03;;;19.46;48.80
85649;BME280;76075;52.476;13.124;2024-02-14T03:58:30;101278.28;;;19.45;48.83
85649;BME280;76075;52.476;13.124;2024-02-14T03:59:32;101286.28;;;19.47;48.75
85649;BME280;76075;52.476;13.124;2024-02-14T04:00:34;101284.78;;;19.46;48.89
85649;BME280;76075;52.476;13.124;2024-02-14T04:01:36;101289.16;;;19.47;48.85
85649;BME280;76075;52.476;13.124;2024-02-14T04:02:37;101292.78;;;19.48;48.72
85649;BME280;76075;52.476;13.124;2024-02-14T04:03:41;101287.75;;;19.48;48.85
85649;BME280;76075;52.476;13.124;2024-02-14T04:04:42;101283.50;;;19.49;48.80
85649;BME280;76075;52.476;13.124;2024-02-14T04:05:45;101282.03;;;19.48;48.91
85649;BME280;76075;52.476;13.124;2024-02-14T04:06:47;101288.50;;;19.49;48.83
85649;BME280;76075;52.476;13.124;2024-02-14T04:07:49;101289.25;;;19.49;48.85
85649;BME280;76075;52.476;13.124;2024-02-14T04:08:53;101287.13;;;19.50;48.81
85649;BME280;76075;52.476;13.124;2024-02-14T04:09:55;101283.50;;;19.49;48.76
85649;BME280;76075;52.476;13.124;2024-02-14T04:10:56;101277.00;;;19.49;48.77
85649;BME280;76075;52.476;13.124;2024-02-14T04:11:58;101279.16;;;19.48;48.78
85649;BME280;76075;52.476;13.124;2024-02-14T04:12:59;101285.63;;;19.49;48.96
85649;BME280;76075;52.476;13.124;2024-02-14T04:14:01;101284.88;;;19.48;48.90
85649;BME280;76075;52.476;13.124;2024-02-14T04:15:02;101280.63;;;19.49;48.84
85649;BME280;76075;52.476;13.124;2024-02-14T04:16:04;101282.13;;;19.50;48.83
85649;BME280;76075;52.476;13.124;2024-02-14T04:17:05;101283.50;;;19.49;48.78
85649;BME280;76075;52.476;13.124;2024-02-14T04:18:09;101282.03;;;19.48;48.77
85649;BME280;76075;52.476;13.124;2024-02-14T04:19:10;101287.75;;;19.48;48.80
85649;BME280;76075;52.476;13.124;2024-02-14T04:20:14;101280.63;;;19.49;48.89
85649;BME280;76075;52.476;13.124;2024-02-14T04:21:16;101282.03;;;19.48;48.87
85649;BME280;76075;52.476;13.124;2024-02-14T04:22:17;101273.28;;;19.46;48.79
85649;BME280;76075;52.476;13.124;2024-02-14T04:23:18;101280.53;;;19.47;48.81
85649;BME280;76075;52.476;13.124;2024-02-14T04:24:20;101276.28;;;19.48;48.95
85649;BME280;76075;52.476;13.124;2024-02-14T04:25:22;101276.28;;;19.48;48.85
85649;BME280;76075;52.476;13.124;2024-02-14T04:26:23;101282.03;;;19.48;48.83
85649;BME280;76075;52.476;13.124;2024-02-14T04:27:25;101274.88;;;19.49;48.92
85649;BME280;76075;52.476;13.124;2024-02-14T04:28:26;101277.00;;;19.49;48.89
85649;BME280;76075;52.476;13.124;2024-02-14T04:29:28;101273.41;;;19.48;48.77
85649;BME280;76075;52.476;13.124;2024-02-14T04:30:31;101266.25;;;19.49;48.81
85649;BME280;76075;52.476;13.124;2024-02-14T04:31:33;101279.88;;;19.49;48.90
85649;BME280;76075;52.476;13.124;2024-02-14T04:32:34;101277.75;;;19.49;48.80
85649;BME280;76075;52.476;13.124;2024-02-14T04:33:36;101274.88;;;19.49;48.78
85649;BME280;76075;52.476;13.124;2024-02-14T04:34:37;101276.38;;;19.50;48.76
85649;BME280;76075;52.476;13.124;2024-02-14T04:35:40;101277.13;;;19.51;48.70
85649;BME280;76075;52.476;13.124;2024-02-14T04:36:42;101269.25;;;19.51;48.78
85649;BME280;76075;52.476;13.124;2024-02-14T04:37:43;101275.00;;;19.51;48.83
85649;BME280;76075;52.476;13.124;2024-02-14T04:38:47;101275.00;;;19.51;48.87
85649;BME280;76075;52.476;13.124;2024-02-14T04:39:49;101270.75;;;19.52;48.80
85649;BME280;76075;52.476;13.124;2024-02-14T04:40:50;101273.63;;;19.52;48.76
85649;BME280;76075;52.476;13.124;2024-02-14T04:41:53;101270.75;;;19.52;48.71
85649;BME280;76075;52.476;13.124;2024-02-14T04:43:02;101275.78;;;19.52;48.70
85649;BME280;76075;52.476;13.124;2024-02-14T04:44:04;101276.50;;;19.52;48.66
85649;BME280;76075;52.476;13.124;2024-02-14T04:45:07;101270.75;;;19.52;48.76
85649;BME280;76075;52.476;13.124;2024-02-14T04:46:09;101269.25;;;19.51;48.73
85649;BME280;76075;52.476;13.124;2024-02-14T04:47:11;101269.25;;;19.51;48.73
85649;BME280;76075;52.476;13.124;2024-02-14T04:48:12;101272.25;;;19.53;48.69
85649;BME280;76075;52.476;13.124;2024-02-14T04:49:14;101263.50;;;19.51;48.76
85649;BME280;76075;52.476;13.124;2024-02-14T04:50:16;101272.13;;;19.51;48.85
85649;BME280;76075;52.476;13.124;2024-02-14T04:51:17;101272.13;;;19.51;48.73
85649;BME280;76075;52.476;13.124;2024-02-14T04:52:19;101272.13;;;19.51;48.86
85649;BME280;76075;52.476;13.124;2024-02-14T04:53:20;101273.53;;;19.50;48.88
85649;BME280;76075;52.476;13.124;2024-02-14T04:54:22;101265.66;;;19.51;48.89
85649;BME280;76075;52.476;13.124;2024-02-14T04:55:23;101261.28;;;19.50;48.87
85649;BME280;76075;52.476;13.124;2024-02-14T04:56:25;101257.75;;;19.51;48.84
85649;BME280;76075;52.476;13.124;2024-02-14T04:57:27;101259.16;;;19.50;48.88
85649;BME280;76075;52.476;13.124;2024-02-14T04:58:28;101256.28;;;19.50;48.82
85649;BME280;76075;52.476;13.124;2024-02-14T04:59:30;101256.28;;;19.50;48.88
85649;BME280;76075;52.476;13.124;2024-02-14T05:00:31;101256.28;;;19.50;48.76
85649;BME280;76075;52.476;13.124;2024-02-14T05:01:33;101252.03;;;19.51;48.60
85649;BME280;76075;52.476;13.124;2024-02-14T05:02:34;101244.78;;;19.50;48.87
85649;BME280;76075;52.476;13.124;2024-02-14T05:03:35;101241.94;;;19.50;48.91
85649;BME280;76075;52.476;13.124;2024-02-14T05:04:38;101249.16;;;19.51;48.77
85649;BME280;76075;52.476;13.124;2024-02-14T05:05:40;101240.53;;;19.51;48.75
85649;BME280;76075;52.476;13.124;2024-02-14T05:06:42;101247.03;;;19.52;48.90
85649;BME280;76075;52.476;13.124;2024-02-14T05:07:43;101243.53;;;19.53;48.81
85649;BME280;76075;52.476;13.124;2024-02-14T05:08:45;101237.78;;;19.53;48.91
85649;BME280;76075;52.476;13.124;2024-02-14T05:09:46;101234.16;;;19.53;48.77
85649;BME280;76075;52.476;13.124;2024-02-14T05:10:51;101237.78;;;19.53;48.83
85649;BME280;76075;52.476;13.124;2024-02-14T05:11:52;101238.50;;;19.54;48.73
85649;BME280;76075;52.476;13.124;2024-02-14T05:12:54;101229.91;;;19.54;48.76
85649;BME280;76075;52.476;13.124;2024-02-14T05:13:55;101232.03;;;19.53;48.75
85649;BME280;76075;52.476;13.124;2024-02-14T05:14:57;101239.28;;;19.54;48.70
85649;BME280;76075;52.476;13.124;2024-02-14T05:16:01;101233.53;;;19.54;48.83
85649;BME280;76075;52.476;13.124;2024-02-14T05:17:03;101234.28;;;19.55;48.66
85649;BME280;76075;52.476;13.124;2024-02-14T05:18:06;101242.28;;;19.56;48.85
85649;BME280;76075;52.476;13.124;2024-02-14T05:19:08;101235.03;;;19.55;48.86
85649;BME280;76075;52.476;13.124;2024-02-14T05:20:09;101235.03;;;19.55;48.84